Time;durP1;ratioP1;P1;durP2;ratioP2;P2;SDS_P1;SDS_P2;PMS_P1;PMS_P2;Temp;Humidity;BMP_temperature;BMP_pressure;BME280_temperature;BME280_humidity;BME280_pressure;Samples;Min_cycle;Max_cycle;Signal;HPM_P1;HPM_P2
2023/10/26 00:01:27;;;;;;;5.85;1.80;;;12.50;87.40;;;;;;5068724;28;20111;-64
2023/10/26 00:03:53;;;;;;;2.80;1.85;;;12.50;87.40;;;;;;5069899;28;20506;-63
2023/10/26 00:06:19;;;;;;;1.80;1.58;;;12.50;87.40;;;;;;5058427;28;20059;-64
2023/10/26 00:08:44;;;;;;;2.92;1.92;;;12.50;87.40;;;;;;5060561;28;20111;-64
2023/10/26 00:11:10;;;;;;;2.78;1.92;;;12.40;87.90;;;;;;5066718;28;20075;-64
2023/10/26 00:13:36;;;;;;;3.75;1.95;;;12.50;87.40;;;;;;5068028;28;20111;-63
2023/10/26 00:16:01;;;;;;;2.58;1.52;;;12.40;87.30;;;;;;5058165;28;20624;-64
2023/10/26 00:18:27;;;;;;;4.68;2.08;;;12.40;87.30;;;;;;5068070;28;20387;-64
2023/10/26 00:21:00;;;;;;;2.60;1.80;;;12.40;87.30;;;;;;5068382;28;20028;-63
2023/10/26 00:23:26;;;;;;;2.55;2.00;;;12.40;87.20;;;;;;5069215;28;20032;-64
2023/10/26 00:25:52;;;;;;;5.57;2.38;;;12.50;87.20;;;;;;5062085;28;20028;-64
2023/10/26 00:28:18;;;;;;;2.42;2.00;;;12.50;87.10;;;;;;5068495;28;20059;-64
2023/10/26 00:30:43;;;;;;;3.63;2.08;;;12.40;87.00;;;;;;5067249;28;20056;-64
2023/10/26 00:33:09;;;;;;;2.45;1.73;;;12.40;87.00;;;;;;5066702;28;20056;-64
2023/10/26 00:35:35;;;;;;;2.70;1.88;;;12.40;87.00;;;;;;5079559;28;20361;-64
2023/10/26 00:38:01;;;;;;;2.97;2.03;;;12.30;86.90;;;;;;5071501;28;20060;-64
2023/10/26 00:40:27;;;;;;;5.10;2.63;;;12.30;86.90;;;;;;5065890;28;20410;-63
2023/10/26 00:43:02;;;;;;;3.25;1.88;;;12.20;86.90;;;;;;5071068;28;20487;-64
2023/10/26 00:45:36;;;;;;;3.70;2.55;;;12.20;86.80;;;;;;5075410;28;20064;-63
2023/10/26 00:48:02;;;;;;;4.03;2.63;;;12.20;87.10;;;;;;5068578;28;20066;-64
2023/10/26 00:50:28;;;;;;;3.92;2.35;;;12.10;87.00;;;;;;5071910;28;20041;-64
2023/10/26 00:52:55;;;;;;;4.95;3.00;;;12.10;87.10;;;;;;5062764;28;20028;-64
2023/10/26 00:55:22;;;;;;;3.33;2.20;;;12.00;87.10;;;;;;5067844;28;20029;-64
2023/10/26 00:57:48;;;;;;;4.00;2.72;;;12.10;87.20;;;;;;5070147;28;20024;-64
2023/10/26 01:00:14;;;;;;;4.00;2.92;;;12.00;87.10;;;;;;5075857;28;20420;-63
2023/10/26 01:02:40;;;;;;;3.63;1.83;;;12.00;87.10;;;;;;5058529;28;20028;-68
2023/10/26 01:05:06;;;;;;;3.45;2.63;;;12.10;87.20;;;;;;5068575;28;20048;-64
2023/10/26 01:07:32;;;;;;;3.10;2.55;;;12.00;87.20;;;;;;5062511;28;20449;-63
2023/10/26 01:09:58;;;;;;;5.20;3.65;;;12.00;87.20;;;;;;5071978;28;20123;-64
2023/10/26 01:12:25;;;;;;;11.02;3.10;;;12.00;87.20;;;;;;5076836;28;20501;-63
2023/10/26 01:14:51;;;;;;;3.45;2.15;;;12.00;87.30;;;;;;5077338;28;20444;-64
2023/10/26 01:17:17;;;;;;;8.07;2.78;;;11.90;88.00;;;;;;5081485;28;20024;-63
2023/10/26 01:19:45;;;;;;;4.15;2.58;;;11.90;87.50;;;;;;5073112;28;20112;-63
2023/10/26 01:22:11;;;;;;;6.50;2.92;;;11.90;87.60;;;;;;5075522;28;20051;-63
2023/10/26 01:24:37;;;;;;;3.88;2.08;;;11.90;87.60;;;;;;5074447;28;20127;-63
2023/10/26 01:27:04;;;;;;;2.58;1.83;;;11.90;87.60;;;;;;5075482;28;20038;-63
2023/10/26 01:29:30;;;;;;;4.40;2.75;;;11.90;87.60;;;;;;5076492;28;20036;-64
2023/10/26 01:31:56;;;;;;;3.65;2.38;;;11.90;87.50;;;;;;5069291;28;20024;-64
2023/10/26 01:34:22;;;;;;;3.25;1.88;;;11.90;87.50;;;;;;5069255;28;20047;-63
2023/10/26 01:36:48;;;;;;;4.20;2.83;;;11.90;87.60;;;;;;5069209;28;20107;-64
2023/10/26 01:39:14;;;;;;;3.35;2.70;;;11.90;87.50;;;;;;5066166;28;20032;-63
2023/10/26 01:41:40;;;;;;;5.20;2.90;;;11.90;87.60;;;;;;5067184;28;20426;-63
2023/10/26 01:44:06;;;;;;;4.07;2.67;;;11.90;87.50;;;;;;5070695;28;20029;-63
2023/10/26 01:46:31;;;;;;;3.25;2.40;;;11.90;87.40;;;;;;5068451;28;20037;-63
2023/10/26 01:49:01;;;;;;;3.60;2.22;;;11.90;87.40;;;;;;5070043;28;20028;-64
2023/10/26 01:51:26;;;;;;;3.42;2.67;;;11.90;87.40;;;;;;5082125;28;20028;-64
2023/10/26 01:53:52;;;;;;;5.97;1.98;;;11.90;87.50;;;;;;5073389;28;20039;-64
2023/10/26 01:56:18;;;;;;;6.53;2.47;;;11.90;87.40;;;;;;5068853;28;20021;-63
2023/10/26 01:58:44;;;;;;;3.45;1.95;;;11.90;87.30;;;;;;5073956;28;20016;-63
2023/10/26 02:01:09;;;;;;;4.30;2.80;;;11.90;87.40;;;;;;5074974;28;20518;-63
2023/10/26 02:03:35;;;;;;;4.10;2.63;;;11.90;87.50;;;;;;5075333;28;20044;-64
2023/10/26 02:06:03;;;;;;;3.85;2.47;;;11.90;87.40;;;;;;5074273;28;20028;-64
2023/10/26 02:08:29;;;;;;;3.58;2.53;;;11.90;87.40;;;;;;5067507;28;20020;-63
2023/10/26 02:10:54;;;;;;;3.95;2.78;;;11.90;87.50;;;;;;5074612;28;20356;-63
2023/10/26 02:13:20;;;;;;;4.93;3.08;;;11.90;87.40;;;;;;5073190;28;20022;-63
2023/10/26 02:15:46;;;;;;;4.00;2.80;;;11.90;87.40;;;;;;5071772;28;20420;-63
2023/10/26 02:18:11;;;;;;;3.45;2.97;;;11.90;87.50;;;;;;5075555;28;20434;-64
2023/10/26 02:20:37;;;;;;;3.95;2.78;;;11.90;87.50;;;;;;5073087;28;20447;-63
2023/10/26 02:23:03;;;;;;;4.50;2.75;;;11.90;87.60;;;;;;5077065;28;20414;-63
2023/10/26 02:25:28;;;;;;;3.85;2.65;;;11.90;87.60;;;;;;5064397;28;20079;-64
2023/10/26 02:27:54;;;;;;;4.25;3.03;;;11.90;87.60;;;;;;5069420;28;20537;-63
2023/10/26 02:30:20;;;;;;;6.50;3.08;;;11.90;87.70;;;;;;5069658;28;20037;-64
2023/10/26 02:32:45;;;;;;;5.60;2.67;;;11.80;87.80;;;;;;5071771;28;20032;-63
2023/10/26 02:35:11;;;;;;;4.35;2.83;;;11.80;87.90;;;;;;5067239;28;20412;-63
2023/10/26 02:37:39;;;;;;;4.85;3.25;;;11.90;87.90;;;;;;5068382;28;20141;-63
2023/10/26 02:40:08;;;;;;;4.80;3.13;;;11.90;87.90;;;;;;5071577;28;20086;-64
2023/10/26 02:42:34;;;;;;;5.10;2.80;;;11.90;87.80;;;;;;5065197;28;20082;-63
2023/10/26 02:45:00;;;;;;;3.33;2.33;;;11.90;87.80;;;;;;5067814;28;20041;-64
2023/10/26 02:47:25;;;;;;;3.75;2.60;;;11.90;87.80;;;;;;5073027;28;20035;-64
2023/10/26 02:49:52;;;;;;;4.82;2.88;;;12.00;87.80;;;;;;5067659;28;20067;-64
2023/10/26 02:52:17;;;;;;;5.47;2.67;;;12.00;87.60;;;;;;5070943;28;20036;-63
2023/10/26 02:54:43;;;;;;;3.90;2.70;;;11.90;87.50;;;;;;5068812;28;20380;-63
2023/10/26 02:57:09;;;;;;;6.20;3.40;;;11.90;87.70;;;;;;5074397;28;20494;-64
2023/10/26 02:59:34;;;;;;;4.03;2.78;;;11.90;87.80;;;;;;5070863;28;20166;-63
2023/10/26 03:02:00;;;;;;;5.47;3.55;;;11.90;87.70;;;;;;5073207;28;20048;-63
2023/10/26 03:04:26;;;;;;;4.45;2.80;;;12.00;87.70;;;;;;5071365;28;20082;-63
2023/10/26 03:06:51;;;;;;;5.70;3.83;;;11.90;87.60;;;;;;5068920;28;20036;-63
2023/10/26 03:09:17;;;;;;;5.18;2.72;;;11.90;87.70;;;;;;5070981;28;20074;-64
2023/10/26 03:11:43;;;;;;;4.25;3.35;;;12.00;87.70;;;;;;5079085;28;20163;-63
2023/10/26 03:14:09;;;;;;;5.93;3.35;;;11.90;87.60;;;;;;5074537;28;20131;-63
2023/10/26 03:16:34;;;;;;;6.00;3.60;;;11.90;87.60;;;;;;5076455;28;20521;-63
2023/10/26 03:19:00;;;;;;;4.72;3.05;;;11.90;87.70;;;;;;5076406;28;20478;-63
2023/10/26 03:21:27;;;;;;;4.32;2.92;;;11.90;87.70;;;;;;5065423;28;20025;-63
2023/10/26 03:23:53;;;;;;;7.13;2.60;;;12.00;87.70;;;;;;5070397;28;20028;-68
2023/10/26 03:26:19;;;;;;;5.40;2.80;;;12.00;87.70;;;;;;5056028;28;20024;-68
2023/10/26 03:28:45;;;;;;;5.00;2.90;;;12.00;87.70;;;;;;5077104;28;20153;-69
2023/10/26 03:31:11;;;;;;;5.10;2.90;;;12.00;87.70;;;;;;5070790;28;20076;-68
2023/10/26 03:33:38;;;;;;;3.88;3.28;;;11.90;87.80;;;;;;5078573;28;20638;-68
2023/10/26 03:36:11;;;;;;;7.22;3.70;;;11.90;87.80;;;;;;5073967;28;20031;-68
2023/10/26 03:38:37;;;;;;;4.80;3.10;;;11.90;87.70;;;;;;5075829;28;20479;-69
2023/10/26 03:41:04;;;;;;;5.45;3.25;;;11.90;87.80;;;;;;5069311;28;20351;-68
2023/10/26 03:43:29;;;;;;;5.57;2.95;;;12.00;87.90;;;;;;5058633;28;20044;-68
2023/10/26 03:45:55;;;;;;;3.53;2.55;;;12.00;87.90;;;;;;5067901;28;20472;-68
2023/10/26 03:48:21;;;;;;;5.55;3.20;;;12.00;87.80;;;;;;5067488;28;20177;-68
2023/10/26 03:50:46;;;;;;;3.83;2.65;;;12.00;87.70;;;;;;5063652;28;20016;-68
2023/10/26 03:53:12;;;;;;;4.38;3.20;;;12.00;87.60;;;;;;5062103;28;20017;-68
2023/10/26 03:55:38;;;;;;;5.25;3.28;;;12.00;87.50;;;;;;5050673;28;20166;-69
2023/10/26 03:58:03;;;;;;;5.25;3.83;;;12.00;87.60;;;;;;5063905;28;20032;-68
2023/10/26 04:00:29;;;;;;;4.95;3.95;;;12.00;87.60;;;;;;5058955;28;20020;-63
2023/10/26 04:02:54;;;;;;;4.47;2.75;;;11.90;87.60;;;;;;5060616;28;20028;-64
2023/10/26 04:05:20;;;;;;;5.93;3.72;;;11.90;87.70;;;;;;5060728;28;20024;-64
2023/10/26 04:07:46;;;;;;;6.28;3.35;;;11.90;87.80;;;;;;5059881;28;20507;-63
2023/10/26 04:10:12;;;;;;;5.25;3.58;;;12.00;87.80;;;;;;5060124;28;20163;-63
2023/10/26 04:12:37;;;;;;;5.53;3.33;;;11.90;87.80;;;;;;5058987;28;20040;-63
2023/10/26 04:15:04;;;;;;;4.47;3.10;;;12.00;87.80;;;;;;5055194;28;20570;-63
2023/10/26 04:17:30;;;;;;;5.63;3.10;;;12.00;87.80;;;;;;5047341;28;20312;-63
2023/10/26 04:19:56;;;;;;;5.55;3.22;;;12.00;87.70;;;;;;5062122;28;20029;-63
2023/10/26 04:22:23;;;;;;;5.03;2.88;;;12.00;87.60;;;;;;5064114;28;20647;-63
2023/10/26 04:24:49;;;;;;;4.60;2.67;;;11.90;87.60;;;;;;5061255;28;20025;-64
2023/10/26 04:27:15;;;;;;;5.75;4.15;;;11.90;87.80;;;;;;5061409;28;20109;-68
2023/10/26 04:29:40;;;;;;;5.63;3.45;;;11.90;87.80;;;;;;5058225;28;20032;-68
2023/10/26 04:32:07;;;;;;;5.63;3.33;;;11.80;87.80;;;;;;5062893;28;20039;-68
2023/10/26 04:34:33;;;;;;;3.67;2.80;;;11.80;87.90;;;;;;5061972;28;20047;-68
2023/10/26 04:36:59;;;;;;;7.03;2.63;;;11.80;87.80;;;;;;5067935;28;20412;-64
2023/10/26 04:39:24;;;;;;;5.22;3.45;;;11.90;87.80;;;;;;5059648;28;20028;-63
2023/10/26 04:41:50;;;;;;;4.95;2.67;;;11.90;87.80;;;;;;5063709;28;20036;-63
2023/10/26 04:44:17;;;;;;;3.78;3.03;;;11.80;87.70;;;;;;5064626;28;20564;-63
2023/10/26 04:46:43;;;;;;;4.07;2.40;;;11.90;87.70;;;;;;5069328;28;20032;-63
2023/10/26 04:49:08;;;;;;;4.05;2.53;;;11.80;87.60;;;;;;5061310;28;20033;-64
2023/10/26 04:51:34;;;;;;;4.35;2.53;;;11.80;87.60;;;;;;5062947;28;20043;-63
2023/10/26 04:53:59;;;;;;;4.13;3.28;;;11.80;87.60;;;;;;5058154;28;20037;-64
2023/10/26 04:56:25;;;;;;;5.13;3.08;;;11.80;87.70;;;;;;5063904;28;20031;-63
2023/10/26 04:58:51;;;;;;;4.50;3.10;;;11.80;87.70;;;;;;5058498;28;20108;-64
2023/10/26 05:01:16;;;;;;;8.20;4.28;;;11.80;87.60;;;;;;5066730;28;20056;-64
2023/10/26 05:03:42;;;;;;;6.20;3.05;;;11.80;87.50;;;;;;5067539;28;20435;-64
2023/10/26 05:06:07;;;;;;;5.75;3.10;;;11.90;87.50;;;;;;5065452;28;20021;-64
2023/10/26 05:08:33;;;;;;;6.35;3.53;;;11.90;87.50;;;;;;5060959;28;20028;-64
2023/10/26 05:10:59;;;;;;;4.30;3.15;;;11.90;87.30;;;;;;5064557;28;20344;-69
2023/10/26 05:13:25;;;;;;;4.70;2.83;;;11.80;87.40;;;;;;5066957;28;20025;-68
2023/10/26 05:15:50;;;;;;;3.33;2.28;;;11.80;87.40;;;;;;5073619;28;20131;-64
2023/10/26 05:18:17;;;;;;;4.97;3.17;;;11.80;88.10;;;;;;5060078;28;20013;-63
2023/10/26 05:20:48;;;;;;;5.85;3.95;;;11.80;87.60;;;;;;5069417;28;20032;-64
2023/10/26 05:23:14;;;;;;;6.63;4.17;;;11.80;87.60;;;;;;5066011;28;20082;-63
2023/10/26 05:25:40;;;;;;;6.47;2.92;;;11.70;87.50;;;;;;5083086;28;20287;-64
2023/10/26 05:28:05;;;;;;;3.88;2.53;;;11.70;87.40;;;;;;5072139;28;20033;-63
2023/10/26 05:30:31;;;;;;;4.20;2.35;;;11.70;87.50;;;;;;5075096;28;20110;-63
2023/10/26 05:32:57;;;;;;;4.60;3.35;;;11.70;87.80;;;;;;5081974;28;20063;-64
2023/10/26 05:35:22;;;;;;;4.65;3.13;;;11.80;87.50;;;;;;5062434;28;20025;-64
2023/10/26 05:37:48;;;;;;;4.72;3.30;;;11.80;87.40;;;;;;5068534;28;20037;-63
2023/10/26 05:40:14;;;;;;;6.65;3.42;;;11.80;88.00;;;;;;5070255;28;20047;-64
2023/10/26 05:42:39;;;;;;;4.18;2.72;;;11.80;87.30;;;;;;5068689;28;20434;-64
2023/10/26 05:45:06;;;;;;;4.93;3.05;;;11.80;87.40;;;;;;5077614;28;20064;-63
2023/10/26 05:47:31;;;;;;;4.78;2.90;;;11.80;87.20;;;;;;5074136;28;20044;-63
2023/10/26 05:49:57;;;;;;;20.77;2.67;;;11.90;87.20;;;;;;5071200;28;20388;-63
2023/10/26 05:52:22;;;;;;;16.85;3.67;;;11.80;87.20;;;;;;5066820;28;20457;-64
2023/10/26 05:54:49;;;;;;;3.25;2.15;;;11.80;87.20;;;;;;5074361;28;20028;-64
2023/10/26 05:57:14;;;;;;;10.50;2.30;;;11.90;87.10;;;;;;5069505;28;20047;-69
2023/10/26 05:59:40;;;;;;;2.25;2.08;;;11.80;87.00;;;;;;5070395;28;20028;-68
2023/10/26 06:02:06;;;;;;;5.68;2.92;;;11.80;87.10;;;;;;5075727;28;20036;-64
2023/10/26 06:04:32;;;;;;;14.02;2.90;;;11.80;87.10;;;;;;5067615;28;20483;-64
2023/10/26 06:06:58;;;;;;;2.92;2.15;;;11.70;87.20;;;;;;5076599;28;20111;-63
2023/10/26 06:09:24;;;;;;;4.40;2.25;;;11.70;87.10;;;;;;5096947;28;20036;-63
2023/10/26 06:11:49;;;;;;;1.80;1.40;;;11.70;87.10;;;;;;5073459;28;20018;-64
2023/10/26 06:14:15;;;;;;;2.90;1.73;;;11.60;87.10;;;;;;5063578;28;20170;-63
2023/10/26 06:16:41;;;;;;;2.92;2.22;;;11.60;87.20;;;;;;5072483;28;20116;-64
2023/10/26 06:19:06;;;;;;;2.35;2.15;;;11.50;87.10;;;;;;5072250;28;20158;-64
2023/10/26 06:21:32;;;;;;;3.28;2.30;;;11.50;87.10;;;;;;5075618;28;20029;-64
2023/10/26 06:23:58;;;;;;;3.78;2.58;;;11.50;87.20;;;;;;5072654;28;20822;-63
2023/10/26 06:26:23;;;;;;;4.53;2.65;;;11.50;87.10;;;;;;5069423;28;20391;-63
2023/10/26 06:28:49;;;;;;;2.88;2.20;;;11.50;87.00;;;;;;5070704;28;20063;-63
2023/10/26 06:31:15;;;;;;;4.25;2.15;;;11.50;86.90;;;;;;5068557;28;20520;-64
2023/10/26 06:33:41;;;;;;;4.68;2.70;;;11.50;86.80;;;;;;5067973;28;20032;-64
2023/10/26 06:36:08;;;;;;;2.70;1.70;;;11.40;86.70;;;;;;5069737;28;20073;-64
2023/10/26 06:38:34;;;;;;;3.53;2.42;;;11.40;86.70;;;;;;5072003;28;20048;-64
2023/10/26 06:41:00;;;;;;;2.85;1.85;;;11.40;86.60;;;;;;5072289;28;20483;-64
2023/10/26 06:43:26;;;;;;;3.10;2.20;;;11.40;86.50;;;;;;5068776;28;20150;-73
2023/10/26 06:45:52;;;;;;;5.65;1.90;;;11.40;86.40;;;;;;5059057;28;20028;-64
2023/10/26 06:48:19;;;;;;;3.75;2.20;;;11.30;86.20;;;;;;5068951;28;20096;-63
2023/10/26 06:50:46;;;;;;;3.15;2.40;;;11.30;86.20;;;;;;5071323;28;20028;-69
2023/10/26 06:53:12;;;;;;;3.25;2.55;;;11.30;86.20;;;;;;5068540;28;20034;-65
2023/10/26 06:55:38;;;;;;;2.97;2.10;;;11.20;86.10;;;;;;5065769;28;20029;-63
2023/10/26 06:58:04;;;;;;;3.60;2.55;;;11.20;86.20;;;;;;5065124;28;20033;-64
2023/10/26 07:00:30;;;;;;;8.43;3.28;;;11.20;86.30;;;;;;5066161;28;20024;-64
2023/10/26 07:02:56;;;;;;;3.00;2.10;;;11.20;86.40;;;;;;5067401;28;20021;-65
2023/10/26 07:05:22;;;;;;;14.77;3.67;;;11.20;86.50;;;;;;5061517;28;20047;-64
2023/10/26 07:07:48;;;;;;;26.98;3.17;;;11.30;86.60;;;;;;5063400;28;20036;-65
2023/10/26 07:10:18;;;;;;;33.75;4.50;;;11.30;86.50;;;;;;5076218;28;20079;-65
2023/10/26 07:12:44;;;;;;;5.25;3.17;;;11.30;86.50;;;;;;5070506;28;20025;-65
2023/10/26 07:15:11;;;;;;;3.42;2.50;;;11.30;86.70;;;;;;5065106;28;20048;-64
2023/10/26 07:17:37;;;;;;;24.35;3.45;;;11.30;86.80;;;;;;5064243;28;20060;-64
2023/10/26 07:20:03;;;;;;;9.07;3.20;;;11.40;86.80;;;;;;5064643;28;20483;-64
2023/10/26 07:22:32;;;;;;;19.70;2.55;;;11.40;86.80;;;;;;5072652;28;20028;-64
2023/10/26 07:24:57;;;;;;;2.22;1.60;;;11.50;87.10;;;;;;5074994;28;20098;-65
2023/10/26 07:27:23;;;;;;;54.30;4.78;;;11.60;86.80;;;;;;5057688;28;20044;-69
2023/10/26 07:29:49;;;;;;;9.05;2.85;;;11.50;86.60;;;;;;5059710;28;20036;-64
2023/10/26 07:32:14;;;;;;;2.97;2.13;;;11.50;86.70;;;;;;5065704;28;20032;-69
2023/10/26 07:34:40;;;;;;;17.30;3.05;;;11.50;86.80;;;;;;5077281;28;20112;-69
2023/10/26 07:37:06;;;;;;;48.72;3.60;;;11.50;86.80;;;;;;5074318;28;20028;-69
2023/10/26 07:39:34;;;;;;;17.00;2.60;;;11.60;86.90;;;;;;5063302;28;20025;-69
2023/10/26 07:42:00;;;;;;;19.15;2.63;;;11.60;86.70;;;;;;5053685;28;20070;-69
2023/10/26 07:44:26;;;;;;;66.95;3.55;;;11.70;86.60;;;;;;5057226;28;20028;-69
2023/10/26 07:46:52;;;;;;;18.60;3.10;;;11.70;86.50;;;;;;5069271;28;20516;-69
2023/10/26 07:49:18;;;;;;;2.95;1.83;;;11.80;86.40;;;;;;5062785;28;20029;-70
2023/10/26 07:51:46;;;;;;;2.50;1.60;;;11.70;86.30;;;;;;5068011;28;20377;-73
2023/10/26 07:54:12;;;;;;;3.22;1.98;;;11.80;86.40;;;;;;5058887;28;20090;-70
2023/10/26 07:56:38;;;;;;;22.67;4.22;;;11.80;86.40;;;;;;5056081;28;20032;-67
2023/10/26 07:59:04;;;;;;;13.57;2.72;;;11.80;86.40;;;;;;5059934;28;20794;-67
2023/10/26 08:01:30;;;;;;;48.80;2.85;;;11.90;86.40;;;;;;5063622;28;20104;-67
2023/10/26 08:03:55;;;;;;;5.28;2.45;;;11.90;86.30;;;;;;5061555;28;20024;-67
2023/10/26 08:06:21;;;;;;;16.95;2.75;;;11.90;86.30;;;;;;5064183;28;20052;-66
2023/10/26 08:08:47;;;;;;;3.97;2.42;;;11.90;86.30;;;;;;5062654;28;20017;-67
2023/10/26 08:11:14;;;;;;;10.35;3.65;;;11.90;86.40;;;;;;5062661;28;20103;-67
2023/10/26 08:13:40;;;;;;;3.35;2.28;;;11.90;86.50;;;;;;5059406;28;20041;-67
2023/10/26 08:16:06;;;;;;;17.17;3.58;;;11.90;86.50;;;;;;5052785;28;20083;-62
2023/10/26 08:18:33;;;;;;;2.95;1.95;;;12.00;86.60;;;;;;5061532;28;20051;-62
2023/10/26 08:20:59;;;;;;;13.88;1.80;;;12.00;86.50;;;;;;5059344;28;20040;-64
2023/10/26 08:23:29;;;;;;;2.03;1.50;;;12.10;86.50;;;;;;5059369;28;20039;-65
2023/10/26 08:25:55;;;;;;;3.55;2.40;;;12.10;86.90;;;;;;5060789;28;20123;-67
2023/10/26 08:28:21;;;;;;;1.65;1.48;;;12.20;86.40;;;;;;5064898;28;20135;-66
2023/10/26 08:30:47;;;;;;;2.83;2.13;;;12.20;86.30;;;;;;5062131;28;20044;-63
2023/10/26 08:33:14;;;;;;;2.10;1.90;;;12.20;86.40;;;;;;5061894;28;20043;-62
2023/10/26 08:35:48;;;;;;;2.90;2.42;;;12.30;86.40;;;;;;5057000;28;20078;-63
2023/10/26 08:38:15;;;;;;;2.67;1.63;;;12.40;86.20;;;;;;5058008;28;20029;-62
2023/10/26 08:40:51;;;;;;;9.30;2.60;;;12.50;86.20;;;;;;5059036;28;20486;-62
2023/10/26 08:43:18;;;;;;;2.95;2.28;;;12.50;86.10;;;;;;5056751;28;20024;-68
2023/10/26 08:45:47;;;;;;;3.10;2.20;;;12.50;86.10;;;;;;5061187;28;20025;-68
2023/10/26 08:48:17;;;;;;;4.18;3.05;;;12.50;86.00;;;;;;5062421;28;20355;-68
2023/10/26 08:50:44;;;;;;;5.63;3.35;;;12.50;86.10;;;;;;5064035;28;20028;-63
2023/10/26 08:53:10;;;;;;;2.60;2.03;;;12.50;86.00;;;;;;5067931;28;20353;-63
2023/10/26 08:55:40;;;;;;;3.45;2.30;;;12.40;86.10;;;;;;5056181;28;20051;-63
2023/10/26 08:58:05;;;;;;;3.60;3.13;;;12.40;86.30;;;;;;5064586;28;20036;-63
2023/10/26 09:00:32;;;;;;;4.63;2.78;;;12.40;86.30;;;;;;5061825;28;20054;-63
2023/10/26 09:02:58;;;;;;;4.85;2.42;;;12.40;86.40;;;;;;5065863;28;20043;-63
2023/10/26 09:05:24;;;;;;;3.42;2.55;;;12.50;86.70;;;;;;5061287;28;20037;-63
2023/10/26 09:07:53;;;;;;;4.10;2.17;;;12.60;86.60;;;;;;5064940;28;20063;-67
2023/10/26 09:10:33;;;;;;;7.22;3.83;;;12.60;86.40;;;;;;5080060;28;20064;-67
2023/10/26 09:13:03;;;;;;;3.85;2.53;;;12.60;86.00;;;;;;5061011;28;20029;-68
2023/10/26 09:15:30;;;;;;;4.95;2.83;;;12.60;86.30;;;;;;5067522;28;20522;-67
2023/10/26 09:18:00;;;;;;;6.63;3.70;;;12.50;86.30;;;;;;5068162;28;20021;-63
2023/10/26 09:20:26;;;;;;;7.72;3.65;;;12.50;86.40;;;;;;5060061;28;20496;-63
2023/10/26 09:22:52;;;;;;;6.85;4.32;;;12.40;86.50;;;;;;5064622;28;20060;-63
2023/10/26 09:25:18;;;;;;;5.32;3.45;;;12.40;86.80;;;;;;5062301;28;20037;-63
2023/10/26 09:27:45;;;;;;;7.28;4.93;;;12.40;86.90;;;;;;5058183;28;20231;-63
2023/10/26 09:30:32;;;;;;;7.40;4.30;;;12.50;87.00;;;;;;5061529;28;20029;-63
2023/10/26 09:32:59;;;;;;;6.43;3.78;;;12.60;86.80;;;;;;5059055;28;20437;-63
2023/10/26 09:35:25;;;;;;;6.05;4.28;;;12.50;86.80;;;;;;5064389;28;20041;-63
2023/10/26 09:37:50;;;;;;;4.75;3.10;;;12.50;86.90;;;;;;5066677;28;20510;-63
2023/10/26 09:40:16;;;;;;;6.15;4.35;;;12.60;87.00;;;;;;5073963;28;20025;-63
2023/10/26 09:42:42;;;;;;;6.45;4.10;;;12.60;86.90;;;;;;5067662;28;20534;-68
2023/10/26 09:45:08;;;;;;;9.90;3.63;;;12.60;86.90;;;;;;5073888;28;20116;-63
2023/10/26 09:47:36;;;;;;;8.10;4.60;;;12.60;86.90;;;;;;5064134;28;20040;-63
2023/10/26 09:50:02;;;;;;;6.25;3.95;;;12.60;86.60;;;;;;5084690;28;20028;-63
2023/10/26 09:52:28;;;;;;;6.10;3.35;;;12.50;86.60;;;;;;5068120;28;20095;-63
2023/10/26 09:54:54;;;;;;;7.85;4.40;;;12.50;86.70;;;;;;5070643;28;20035;-63
2023/10/26 09:57:27;;;;;;;9.75;4.70;;;12.50;86.60;;;;;;5065387;28;20123;-63
2023/10/26 09:59:53;;;;;;;5.72;3.78;;;12.50;86.70;;;;;;5080116;28;20017;-67
2023/10/26 10:02:20;;;;;;;6.13;3.67;;;12.40;86.80;;;;;;5071566;28;20028;-67
2023/10/26 10:04:47;;;;;;;9.85;4.82;;;12.50;86.90;;;;;;5065753;28;20445;-68
2023/10/26 10:07:39;;;;;;;7.93;4.70;;;12.60;86.80;;;;;;5065066;28;20028;-67
2023/10/26 10:10:07;;;;;;;7.60;4.70;;;12.60;86.70;;;;;;5068071;28;20048;-63
2023/10/26 10:12:34;;;;;;;7.10;4.75;;;12.50;86.70;;;;;;5070819;28;20047;-63
2023/10/26 10:15:03;;;;;;;7.80;4.95;;;12.60;86.80;;;;;;5067321;28;20041;-64
2023/10/26 10:17:44;;;;;;;6.78;5.10;;;12.60;86.60;;;;;;5068650;28;20024;-68
2023/10/26 10:20:19;;;;;;;7.10;4.75;;;12.60;86.40;;;;;;5065564;28;20025;-67
2023/10/26 10:22:47;;;;;;;7.40;4.05;;;12.60;86.50;;;;;;5063112;28;20081;-67
2023/10/26 10:25:14;;;;;;;5.47;3.70;;;12.60;86.70;;;;;;5061540;28;20032;-68
2023/10/26 10:27:41;;;;;;;6.68;3.95;;;12.60;86.70;;;;;;5069702;28;20021;-68
2023/10/26 10:30:11;;;;;;;7.07;4.07;;;12.60;86.60;;;;;;5072352;28;20031;-67
2023/10/26 10:32:46;;;;;;;7.82;5.72;;;12.60;86.40;;;;;;5061958;28;20844;-68
2023/10/26 10:35:25;;;;;;;6.90;4.93;;;12.70;86.20;;;;;;5061985;28;20039;-67
2023/10/26 10:38:16;;;;;;;7.25;5.07;;;12.60;86.40;;;;;;5065446;28;20098;-68
2023/10/26 10:41:01;;;;;;;7.88;4.95;;;12.70;86.40;;;;;;5070800;28;20071;-68
2023/10/26 10:43:36;;;;;;;7.47;4.57;;;12.70;86.30;;;;;;5066903;28;20398;-68
2023/10/26 10:46:23;;;;;;;9.30;4.90;;;12.70;86.30;;;;;;5066348;28;20048;-68
2023/10/26 10:48:59;;;;;;;8.35;4.97;;;12.80;86.30;;;;;;5061744;28;20476;-68
2023/10/26 10:51:47;;;;;;;8.55;4.05;;;12.80;86.20;;;;;;5077980;28;20032;-68
2023/10/26 10:54:17;;;;;;;8.00;4.97;;;12.90;86.20;;;;;;5068070;28;20471;-73
2023/10/26 10:56:46;;;;;;;8.43;5.30;;;13.00;86.20;;;;;;5067578;28;20533;-73
2023/10/26 10:59:22;;;;;;;4.55;3.38;;;13.10;86.10;;;;;;5061586;28;20028;-72
2023/10/26 11:01:50;;;;;;;6.38;4.20;;;13.20;86.00;;;;;;5064881;28;20391;-73
2023/10/26 11:04:15;;;;;;;6.30;3.67;;;13.30;85.90;;;;;;5068991;28;20099;-73
2023/10/26 11:06:46;;;;;;;6.65;4.03;;;13.40;85.80;;;;;;5062910;28;20155;-72
2023/10/26 11:09:37;;;;;;;7.80;4.80;;;13.40;85.70;;;;;;5068039;28;20537;-73
2023/10/26 11:12:10;;;;;;;6.95;5.05;;;13.50;85.60;;;;;;5070844;28;20126;-73
2023/10/26 11:14:37;;;;;;;7.45;3.88;;;13.60;85.60;;;;;;5061125;28;20515;-73
2023/10/26 11:17:03;;;;;;;5.43;3.75;;;13.60;85.40;;;;;;5065867;28;20139;-73
2023/10/26 11:19:28;;;;;;;5.93;3.88;;;13.70;85.30;;;;;;5064687;28;20498;-73
2023/10/26 11:21:55;;;;;;;8.52;4.47;;;13.80;85.30;;;;;;5061011;28;20060;-73
2023/10/26 11:24:32;;;;;;;5.80;4.03;;;13.80;85.20;;;;;;5063502;28;20529;-70
2023/10/26 11:27:12;;;;;;;6.18;3.60;;;13.80;85.20;;;;;;5065680;28;20059;-68
2023/10/26 11:29:40;;;;;;;8.43;4.68;;;13.80;85.20;;;;;;5066350;28;20403;-68
2023/10/26 11:32:19;;;;;;;4.28;3.47;;;13.80;85.20;;;;;;5065252;28;20029;-68
2023/10/26 11:35:07;;;;;;;6.78;3.85;;;13.80;85.10;;;;;;5062408;28;20043;-68
2023/10/26 11:37:35;;;;;;;7.20;4.10;;;13.80;85.10;;;;;;5066400;28;20040;-68
2023/10/26 11:40:02;;;;;;;8.95;5.38;;;13.70;85.10;;;;;;5052304;28;20027;-68
2023/10/26 11:42:45;;;;;;;5.28;3.28;;;13.60;85.00;;;;;;5060615;28;20037;-68
2023/10/26 11:45:15;;;;;;;6.60;4.28;;;13.60;85.10;;;;;;5060744;28;20454;-68
2023/10/26 11:47:57;;;;;;;6.88;3.80;;;13.50;85.40;;;;;;5052427;28;20059;-69
2023/10/26 11:50:26;;;;;;;5.30;3.30;;;13.50;85.30;;;;;;5059198;28;20115;-63
2023/10/26 11:52:54;;;;;;;5.25;3.80;;;13.50;85.40;;;;;;5067768;28;20032;-63
2023/10/26 11:55:21;;;;;;;7.95;3.67;;;13.50;85.40;;;;;;5062521;28;20029;-69
2023/10/26 11:57:47;;;;;;;6.30;3.47;;;13.40;85.50;;;;;;5066760;28;20024;-68
2023/10/26 12:00:14;;;;;;;3.97;3.10;;;13.50;85.60;;;;;;5066880;28;20037;-68
2023/10/26 12:02:40;;;;;;;6.07;3.88;;;13.50;85.50;;;;;;5058966;28;20044;-68
2023/10/26 12:05:15;;;;;;;5.70;3.53;;;13.50;85.30;;;;;;5055413;28;20660;-63
2023/10/26 12:07:42;;;;;;;6.50;4.07;;;13.60;85.30;;;;;;5070807;28;20028;-63
2023/10/26 12:10:08;;;;;;;6.93;3.80;;;13.60;85.30;;;;;;5068325;28;20059;-63
2023/10/26 12:12:34;;;;;;;7.20;3.17;;;13.70;85.30;;;;;;5067671;28;20053;-63
2023/10/26 12:15:00;;;;;;;6.00;3.53;;;13.70;85.30;;;;;;5066605;28;20044;-63
2023/10/26 12:17:25;;;;;;;6.28;3.95;;;13.80;85.30;;;;;;5071150;28;20036;-63
2023/10/26 12:19:51;;;;;;;7.55;4.80;;;13.80;85.20;;;;;;5083333;28;20044;-63
2023/10/26 12:22:17;;;;;;;7.80;4.80;;;13.80;85.10;;;;;;5070125;28;20028;-63
2023/10/26 12:24:43;;;;;;;7.93;5.05;;;13.80;85.20;;;;;;5070172;28;20036;-63
2023/10/26 12:27:09;;;;;;;6.90;4.15;;;13.80;85.10;;;;;;5065619;28;20032;-63
2023/10/26 12:29:34;;;;;;;10.70;4.70;;;13.80;85.00;;;;;;5064149;28;20036;-63
2023/10/26 12:32:00;;;;;;;6.38;3.67;;;13.80;85.10;;;;;;5067537;28;20042;-63
2023/10/26 12:34:26;;;;;;;6.10;4.10;;;13.80;85.10;;;;;;5064663;28;20335;-63
2023/10/26 12:36:51;;;;;;;8.43;4.20;;;13.80;85.10;;;;;;5068875;28;20029;-63
2023/10/26 12:39:17;;;;;;;7.18;3.95;;;13.80;85.10;;;;;;5066428;28;20025;-63
2023/10/26 12:41:43;;;;;;;7.32;3.60;;;13.80;85.10;;;;;;5057880;28;20039;-63
2023/10/26 12:44:08;;;;;;;7.05;3.25;;;13.70;85.20;;;;;;5063295;28;20120;-63
2023/10/26 12:46:34;;;;;;;5.88;3.45;;;13.70;85.20;;;;;;5065116;28;20020;-63